sensor_id;sensor_type;location;lat;lon;timestamp;pressure;altitude;pressure_sealevel;temperature;humidity
62462;BME280;48511;38.664;-9.202;2022-11-20T00:00:50;49937.25;;;-146.63;78.30
62462;BME280;48511;38.664;-9.202;2022-11-20T00:02:51;49960.94;;;-146.63;78.64
62462;BME280;48511;38.664;-9.202;2022-11-20T00:04:52;49951.09;;;-146.63;78.74
62462;BME280;48511;38.664;-9.202;2022-11-20T00:06:52;49919.50;;;-146.63;78.59
62462;BME280;48511;38.664;-9.202;2022-11-20T00:08:58;49964.91;;;-146.63;78.82
62462;BME280;48511;38.664;-9.202;2022-11-20T00:11:05;49953.06;;;-146.63;79.00
62462;BME280;48511;38.664;-9.202;2022-11-20T00:13:06;49972.78;;;-146.63;79.13
62462;BME280;48511;38.664;-9.202;2022-11-20T00:15:08;49960.94;;;-146.63;79.38
62462;BME280;48511;38.664;-9.202;2022-11-20T00:17:09;49945.16;;;-146.63;79.39
62462;BME280;48511;38.664;-9.202;2022-11-20T00:19:09;49953.06;;;-146.63;79.64
62462;BME280;48511;38.664;-9.202;2022-11-20T00:21:32;49972.78;;;-146.63;79.69
62462;BME280;48511;38.664;-9.202;2022-11-20T00:23:33;49937.25;;;-146.63;79.84
62462;BME280;48511;38.664;-9.202;2022-11-20T00:25:34;49960.94;;;-146.63;79.89
62462;BME280;48511;38.664;-9.202;2022-11-20T00:27:35;49937.25;;;-146.63;80.00
62462;BME280;48511;38.664;-9.202;2022-11-20T00:29:36;49941.22;;;-146.63;79.97
62462;BME280;48511;38.664;-9.202;2022-11-20T00:31:37;49943.19;;;-146.63;79.99
62462;BME280;48511;38.664;-9.202;2022-11-20T00:33:38;49953.06;;;-146.63;79.94
62462;BME280;48511;38.664;-9.202;2022-11-20T00:35:38;49972.78;;;-146.63;79.86
62462;BME280;48511;38.664;-9.202;2022-11-20T00:37:40;49941.22;;;-146.63;79.85
62462;BME280;48511;38.664;-9.202;2022-11-20T00:39:40;49939.25;;;-146.63;79.94
62462;BME280;48511;38.664;-9.202;2022-11-20T00:41:41;49972.78;;;-146.63;79.89
62462;BME280;48511;38.664;-9.202;2022-11-20T00:43:42;49957.00;;;-146.63;79.79
62462;BME280;48511;38.664;-9.202;2022-11-20T00:45:43;49976.75;;;-146.63;79.88
62462;BME280;48511;38.664;-9.202;2022-11-20T00:47:44;49960.94;;;-146.63;80.02
62462;BME280;48511;38.664;-9.202;2022-11-20T00:49:44;49917.53;;;-146.63;80.05
62462;BME280;48511;38.664;-9.202;2022-11-20T00:51:45;49941.22;;;-146.63;80.03
62462;BME280;48511;38.664;-9.202;2022-11-20T00:53:46;49972.78;;;-146.63;80.14
62462;BME280;48511;38.664;-9.202;2022-11-20T00:56:00;49968.84;;;-146.63;80.20
62462;BME280;48511;38.664;-9.202;2022-11-20T00:58:01;49968.84;;;-146.63;80.22
62462;BME280;48511;38.664;-9.202;2022-11-20T01:00:02;49939.25;;;-146.63;80.31
62462;BME280;48511;38.664;-9.202;2022-11-20T01:02:03;49937.25;;;-146.63;80.28
62462;BME280;48511;38.664;-9.202;2022-11-20T01:04:04;49927.41;;;-146.63;80.42
62462;BME280;48511;38.664;-9.202;2022-11-20T01:06:26;49937.25;;;-146.63;80.36
62462;BME280;48511;38.664;-9.202;2022-11-20T01:08:34;49945.16;;;-146.63;80.55
62462;BME280;48511;38.664;-9.202;2022-11-20T01:10:35;49949.09;;;-146.63;80.54
62462;BME280;48511;38.664;-9.202;2022-11-20T01:12:36;49974.75;;;-146.63;80.11
62462;BME280;48511;38.664;-9.202;2022-11-20T01:14:36;49964.91;;;-146.63;79.66
62462;BME280;48511;38.664;-9.202;2022-11-20T01:16:40;49968.84;;;-146.63;79.64
62462;BME280;48511;38.664;-9.202;2022-11-20T01:18:43;49937.25;;;-146.63;79.12
62462;BME280;48511;38.664;-9.202;2022-11-20T01:20:44;49941.22;;;-146.63;79.33
62462;BME280;48511;38.664;-9.202;2022-11-20T01:22:45;50004.38;;;-146.63;78.91
62462;BME280;48511;38.664;-9.202;2022-11-20T01:24:45;49964.91;;;-146.63;78.63
62462;BME280;48511;38.664;-9.202;2022-11-20T01:26:50;49960.94;;;-146.63;78.67
62462;BME280;48511;38.664;-9.202;2022-11-20T01:28:51;49968.84;;;-146.63;79.13
62462;BME280;48511;38.664;-9.202;2022-11-20T01:30:52;49937.25;;;-146.63;79.43
62462;BME280;48511;38.664;-9.202;2022-11-20T01:32:55;49960.94;;;-146.63;79.78
62462;BME280;48511;38.664;-9.202;2022-11-20T01:34:55;49953.06;;;-146.63;79.83
62462;BME280;48511;38.664;-9.202;2022-11-20T01:36:56;49978.72;;;-146.63;80.03
62462;BME280;48511;38.664;-9.202;2022-11-20T01:38:59;49978.72;;;-146.63;80.41
62462;BME280;48511;38.664;-9.202;2022-11-20T01:41:00;49949.09;;;-146.63;80.56
62462;BME280;48511;38.664;-9.202;2022-11-20T01:43:14;49974.75;;;-146.63;80.50
62462;BME280;48511;38.664;-9.202;2022-11-20T01:45:46;49988.59;;;-146.63;80.39
62462;BME280;48511;38.664;-9.202;2022-11-20T01:47:50;49947.13;;;-146.63;80.33
62462;BME280;48511;38.664;-9.202;2022-11-20T01:50:05;49951.09;;;-146.63;80.74
62462;BME280;48511;38.664;-9.202;2022-11-20T01:52:16;49945.16;;;-146.63;80.73
62462;BME280;48511;38.664;-9.202;2022-11-20T01:54:27;49966.88;;;-146.63;80.81
62462;BME280;48511;38.664;-9.202;2022-11-20T01:56:31;49949.09;;;-146.63;80.88
62462;BME280;48511;38.664;-9.202;2022-11-20T01:58:38;49925.41;;;-146.63;80.96
62462;BME280;48511;38.664;-9.202;2022-11-20T02:00:42;50000.44;;;-146.63;80.86
62462;BME280;48511;38.664;-9.202;2022-11-20T02:02:50;49990.56;;;-146.63;80.75
62462;BME280;48511;38.664;-9.202;2022-11-20T02:04:54;49941.22;;;-146.63;80.89
62462;BME280;48511;38.664;-9.202;2022-11-20T02:07:00;49945.16;;;-146.63;81.01
62462;BME280;48511;38.664;-9.202;2022-11-20T02:09:01;49935.28;;;-146.63;81.19
62462;BME280;48511;38.664;-9.202;2022-11-20T02:11:02;49960.94;;;-146.63;81.14
62462;BME280;48511;38.664;-9.202;2022-11-20T02:13:03;49949.09;;;-146.63;80.92
62462;BME280;48511;38.664;-9.202;2022-11-20T02:15:22;49943.19;;;-146.63;80.81
62462;BME280;48511;38.664;-9.202;2022-11-20T02:17:24;49972.78;;;-146.63;80.78
62462;BME280;48511;38.664;-9.202;2022-11-20T02:19:30;49980.69;;;-146.63;80.80
62462;BME280;48511;38.664;-9.202;2022-11-20T02:21:43;49984.63;;;-146.63;80.75
62462;BME280;48511;38.664;-9.202;2022-11-20T02:25:57;49957.00;;;-146.63;80.84
62462;BME280;48511;38.664;-9.202;2022-11-20T02:27:58;49964.91;;;-146.63;80.95
62462;BME280;48511;38.664;-9.202;2022-11-20T02:30:06;49964.91;;;-146.63;81.10
62462;BME280;48511;38.664;-9.202;2022-11-20T02:32:22;49968.84;;;-146.63;81.34
62462;BME280;48511;38.664;-9.202;2022-11-20T02:34:23;49976.75;;;-146.63;81.41
62462;BME280;48511;38.664;-9.202;2022-11-20T02:36:26;49962.91;;;-146.63;81.62
62462;BME280;48511;38.664;-9.202;2022-11-20T02:38:27;50010.28;;;-146.63;81.39
62462;BME280;48511;38.664;-9.202;2022-11-20T02:40:29;49958.97;;;-146.63;81.12
62462;BME280;48511;38.664;-9.202;2022-11-20T02:42:29;49990.56;;;-146.63;81.07
62462;BME280;48511;38.664;-9.202;2022-11-20T02:44:30;49960.94;;;-146.63;80.88
62462;BME280;48511;38.664;-9.202;2022-11-20T02:46:31;49962.91;;;-146.63;80.93
62462;BME280;48511;38.664;-9.202;2022-11-20T02:48:32;49984.63;;;-146.63;81.06
62462;BME280;48511;38.664;-9.202;2022-11-20T02:50:37;49980.69;;;-146.63;81.42
62462;BME280;48511;38.664;-9.202;2022-11-20T02:52:38;49968.84;;;-146.63;81.67
62462;BME280;48511;38.664;-9.202;2022-11-20T02:54:39;49976.75;;;-146.63;81.95
62462;BME280;48511;38.664;-9.202;2022-11-20T02:56:39;49972.78;;;-146.63;82.06
62462;BME280;48511;38.664;-9.202;2022-11-20T02:58:40;49951.09;;;-146.63;82.08
62462;BME280;48511;38.664;-9.202;2022-11-20T03:00:41;49933.31;;;-146.63;82.31
62462;BME280;48511;38.664;-9.202;2022-11-20T03:02:44;49982.66;;;-146.63;82.67
62462;BME280;48511;38.664;-9.202;2022-11-20T03:04:45;49980.69;;;-146.63;82.72
62462;BME280;48511;38.664;-9.202;2022-11-20T03:06:46;49968.84;;;-146.63;82.71
62462;BME280;48511;38.664;-9.202;2022-11-20T03:08:46;49976.75;;;-146.63;82.62
62462;BME280;48511;38.664;-9.202;2022-11-20T03:10:47;49972.78;;;-146.63;82.55
62462;BME280;48511;38.664;-9.202;2022-11-20T03:12:53;49958.97;;;-146.63;82.69
62462;BME280;48511;38.664;-9.202;2022-11-20T03:14:53;49992.53;;;-146.63;82.68
62462;BME280;48511;38.664;-9.202;2022-11-20T03:16:55;49968.84;;;-146.63;82.76
62462;BME280;48511;38.664;-9.202;2022-11-20T03:18:55;49960.94;;;-146.63;82.66
62462;BME280;48511;38.664;-9.202;2022-11-20T03:20:57;49968.84;;;-146.63;82.76
62462;BME280;48511;38.664;-9.202;2022-11-20T03:22:59;49960.94;;;-146.63;82.72
62462;BME280;48511;38.664;-9.202;2022-11-20T03:25:00;49964.91;;;-146.63;82.83
62462;BME280;48511;38.664;-9.202;2022-11-20T03:27:01;49972.78;;;-146.63;82.84
62462;BME280;48511;38.664;-9.202;2022-11-20T03:29:03;49974.75;;;-146.63;82.74
62462;BME280;48511;38.664;-9.202;2022-11-20T03:31:10;50000.44;;;-146.63;82.84
62462;BME280;48511;38.664;-9.202;2022-11-20T03:33:11;49966.88;;;-146.63;82.85
62462;BME280;48511;38.664;-9.202;2022-11-20T03:35:12;49992.53;;;-146.63;82.85
62462;BME280;48511;38.664;-9.202;2022-11-20T03:37:12;49996.47;;;-146.63;82.84
62462;BME280;48511;38.664;-9.202;2022-11-20T03:39:13;50016.22;;;-146.63;82.91
62462;BME280;48511;38.664;-9.202;2022-11-20T03:41:17;49960.94;;;-146.63;82.70
62462;BME280;48511;38.664;-9.202;2022-11-20T03:43:18;49937.25;;;-146.63;82.92
62462;BME280;48511;38.664;-9.202;2022-11-20T03:45:19;49964.91;;;-146.63;82.75
62462;BME280;48511;38.664;-9.202;2022-11-20T03:47:20;49994.50;;;-146.63;82.81
62462;BME280;48511;38.664;-9.202;2022-11-20T03:49:20;49960.94;;;-146.63;82.56
62462;BME280;48511;38.664;-9.202;2022-11-20T03:51:22;49970.81;;;-146.63;82.54
62462;BME280;48511;38.664;-9.202;2022-11-20T03:53:23;49937.25;;;-146.63;82.51
62462;BME280;48511;38.664;-9.202;2022-11-20T03:55:23;49957.00;;;-146.63;82.74
62462;BME280;48511;38.664;-9.202;2022-11-20T03:57:24;49994.50;;;-146.63;82.84
62462;BME280;48511;38.664;-9.202;2022-11-20T03:59:25;49937.25;;;-146.63;82.84
62462;BME280;48511;38.664;-9.202;2022-11-20T04:01:31;49929.38;;;-146.63;82.91
62462;BME280;48511;38.664;-9.202;2022-11-20T04:03:32;49976.75;;;-146.63;82.72
62462;BME280;48511;38.664;-9.202;2022-11-20T04:05:33;49966.88;;;-146.63;83.02
62462;BME280;48511;38.664;-9.202;2022-11-20T04:07:34;49992.53;;;-146.63;83.08
62462;BME280;48511;38.664;-9.202;2022-11-20T04:09:35;49957.00;;;-146.63;83.18
62462;BME280;48511;38.664;-9.202;2022-11-20T04:11:39;49972.78;;;-146.63;83.17
62462;BME280;48511;38.664;-9.202;2022-11-20T04:13:41;49998.44;;;-146.63;83.33
62462;BME280;48511;38.664;-9.202;2022-11-20T04:15:42;49996.47;;;-146.63;83.48
62462;BME280;48511;38.664;-9.202;2022-11-20T04:17:43;49972.78;;;-146.63;83.60
62462;BME280;48511;38.664;-9.202;2022-11-20T04:19:44;49978.72;;;-146.63;83.50
62462;BME280;48511;38.664;-9.202;2022-11-20T04:21:45;49949.09;;;-146.63;83.61
62462;BME280;48511;38.664;-9.202;2022-11-20T04:23:45;49935.28;;;-146.63;83.46
62462;BME280;48511;38.664;-9.202;2022-11-20T04:25:46;49988.59;;;-146.63;83.41
62462;BME280;48511;38.664;-9.202;2022-11-20T04:27:47;49964.91;;;-146.63;83.50
62462;BME280;48511;38.664;-9.202;2022-11-20T04:29:47;49937.25;;;-146.63;83.74
62462;BME280;48511;38.664;-9.202;2022-11-20T04:31:48;49960.94;;;-146.63;83.84
62462;BME280;48511;38.664;-9.202;2022-11-20T04:33:49;49992.53;;;-146.63;83.91
62462;BME280;48511;38.664;-9.202;2022-11-20T04:35:51;49982.66;;;-146.63;83.80
62462;BME280;48511;38.664;-9.202;2022-11-20T04:37:51;49933.31;;;-146.63;83.74
62462;BME280;48511;38.664;-9.202;2022-11-20T04:39:52;49980.69;;;-146.63;83.65
62462;BME280;48511;38.664;-9.202;2022-11-20T04:41:53;49945.16;;;-146.63;83.79
62462;BME280;48511;38.664;-9.202;2022-11-20T04:44:13;49980.69;;;-146.63;83.59
62462;BME280;48511;38.664;-9.202;2022-11-20T04:46:15;49980.69;;;-146.63;83.69
62462;BME280;48511;38.664;-9.202;2022-11-20T04:48:16;49968.84;;;-146.63;83.53
62462;BME280;48511;38.664;-9.202;2022-11-20T04:50:16;49945.16;;;-146.63;83.57
62462;BME280;48511;38.664;-9.202;2022-11-20T04:52:17;49980.69;;;-146.63;83.83
62462;BME280;48511;38.664;-9.202;2022-11-20T04:54:18;49980.69;;;-146.63;83.84
62462;BME280;48511;38.664;-9.202;2022-11-20T04:56:20;49974.75;;;-146.63;84.01
62462;BME280;48511;38.664;-9.202;2022-11-20T04:58:22;49974.75;;;-146.63;84.01
62462;BME280;48511;38.664;-9.202;2022-11-20T05:00:22;49941.22;;;-146.63;83.97
62462;BME280;48511;38.664;-9.202;2022-11-20T05:02:23;49986.59;;;-146.63;84.15
62462;BME280;48511;38.664;-9.202;2022-11-20T05:04:24;49972.78;;;-146.63;84.15
62462;BME280;48511;38.664;-9.202;2022-11-20T05:06:24;49990.56;;;-146.63;84.28
62462;BME280;48511;38.664;-9.202;2022-11-20T05:08:25;49966.88;;;-146.63;84.34
62462;BME280;48511;38.664;-9.202;2022-11-20T05:10:26;49968.84;;;-146.63;84.46
62462;BME280;48511;38.664;-9.202;2022-11-20T05:12:27;49996.47;;;-146.63;84.52
62462;BME280;48511;38.664;-9.202;2022-11-20T05:14:29;49994.50;;;-146.63;84.42
62462;BME280;48511;38.664;-9.202;2022-11-20T05:16:29;49978.72;;;-146.63;84.43
62462;BME280;48511;38.664;-9.202;2022-11-20T05:18:30;50000.44;;;-146.63;84.41
62462;BME280;48511;38.664;-9.202;2022-11-20T05:20:31;49978.72;;;-146.63;84.38
62462;BME280;48511;38.664;-9.202;2022-11-20T05:22:31;49964.91;;;-146.63;84.43
62462;BME280;48511;38.664;-9.202;2022-11-20T05:24:32;49982.66;;;-146.63;84.70
62462;BME280;48511;38.664;-9.202;2022-11-20T05:26:33;49980.69;;;-146.63;84.39
62462;BME280;48511;38.664;-9.202;2022-11-20T05:28:33;49972.78;;;-146.63;84.40
62462;BME280;48511;38.664;-9.202;2022-11-20T05:30:34;49976.75;;;-146.63;84.37
62462;BME280;48511;38.664;-9.202;2022-11-20T05:32:35;49994.50;;;-146.63;84.51
62462;BME280;48511;38.664;-9.202;2022-11-20T05:34:36;49976.75;;;-146.63;84.54
62462;BME280;48511;38.664;-9.202;2022-11-20T05:36:36;49949.09;;;-146.63;84.51
62462;BME280;48511;38.664;-9.202;2022-11-20T05:38:37;49998.44;;;-146.63;84.65
62462;BME280;48511;38.664;-9.202;2022-11-20T05:40:38;49992.53;;;-146.63;84.58
62462;BME280;48511;38.664;-9.202;2022-11-20T05:42:39;49972.78;;;-146.63;84.48
62462;BME280;48511;38.664;-9.202;2022-11-20T05:44:39;49964.91;;;-146.63;84.52
62462;BME280;48511;38.664;-9.202;2022-11-20T05:46:40;49960.94;;;-146.63;84.65
62462;BME280;48511;38.664;-9.202;2022-11-20T05:48:42;49962.91;;;-146.63;84.66
62462;BME280;48511;38.664;-9.202;2022-11-20T05:50:42;49992.53;;;-146.63;84.57
62462;BME280;48511;38.664;-9.202;2022-11-20T05:52:43;49941.22;;;-146.63;84.82
62462;BME280;48511;38.664;-9.202;2022-11-20T05:54:44;49976.75;;;-146.63;85.06
62462;BME280;48511;38.664;-9.202;2022-11-20T05:56:44;50006.34;;;-146.63;84.79
62462;BME280;48511;38.664;-9.202;2022-11-20T05:58:46;49988.59;;;-146.63;84.69
62462;BME280;48511;38.664;-9.202;2022-11-20T06:00:47;49978.72;;;-146.63;84.78
62462;BME280;48511;38.664;-9.202;2022-11-20T06:02:48;49951.09;;;-146.63;84.87
62462;BME280;48511;38.664;-9.202;2022-11-20T06:04:49;50004.38;;;-146.63;84.94
62462;BME280;48511;38.664;-9.202;2022-11-20T06:06:49;49945.16;;;-146.63;84.88
62462;BME280;48511;38.664;-9.202;2022-11-20T06:08:50;49966.88;;;-146.63;84.82
62462;BME280;48511;38.664;-9.202;2022-11-20T06:10:50;49968.84;;;-146.63;84.57
62462;BME280;48511;38.664;-9.202;2022-11-20T06:12:51;49972.78;;;-146.63;84.73
62462;BME280;48511;38.664;-9.202;2022-11-20T06:14:52;49941.22;;;-146.63;84.84
62462;BME280;48511;38.664;-9.202;2022-11-20T06:16:52;50012.25;;;-146.63;84.83
62462;BME280;48511;38.664;-9.202;2022-11-20T06:18:53;49962.91;;;-146.63;84.87
62462;BME280;48511;38.664;-9.202;2022-11-20T06:21:11;49958.97;;;-146.63;84.93
62462;BME280;48511;38.664;-9.202;2022-11-20T06:23:12;50004.38;;;-146.63;84.93
62462;BME280;48511;38.664;-9.202;2022-11-20T06:25:13;50006.34;;;-146.63;84.94
62462;BME280;48511;38.664;-9.202;2022-11-20T06:27:14;49951.09;;;-146.63;85.00
62462;BME280;48511;38.664;-9.202;2022-11-20T06:29:15;49992.53;;;-146.63;84.91
62462;BME280;48511;38.664;-9.202;2022-11-20T06:31:18;49964.91;;;-146.63;84.97
62462;BME280;48511;38.664;-9.202;2022-11-20T06:33:19;50000.44;;;-146.63;84.91
62462;BME280;48511;38.664;-9.202;2022-11-20T06:35:20;49966.88;;;-146.63;85.02
62462;BME280;48511;38.664;-9.202;2022-11-20T06:37:20;49970.81;;;-146.63;85.00
62462;BME280;48511;38.664;-9.202;2022-11-20T06:39:21;49976.75;;;-146.63;84.98
62462;BME280;48511;38.664;-9.202;2022-11-20T06:41:22;49982.66;;;-146.63;85.14
62462;BME280;48511;38.664;-9.202;2022-11-20T06:43:24;49953.06;;;-146.63;85.25
62462;BME280;48511;38.664;-9.202;2022-11-20T06:45:24;49943.19;;;-146.63;85.28
62462;BME280;48511;38.664;-9.202;2022-11-20T06:47:25;49976.75;;;-146.63;85.20
62462;BME280;48511;38.664;-9.202;2022-11-20T06:49:26;50006.34;;;-146.63;85.53
62462;BME280;48511;38.664;-9.202;2022-11-20T06:51:26;50020.16;;;-146.63;85.35
62462;BME280;48511;38.664;-9.202;2022-11-20T06:53:27;50016.22;;;-146.63;85.40
62462;BME280;48511;38.664;-9.202;2022-11-20T06:55:28;50004.38;;;-146.63;85.49
62462;BME280;48511;38.664;-9.202;2022-11-20T06:57:29;50004.38;;;-146.63;85.52
62462;BME280;48511;38.664;-9.202;2022-11-20T06:59:29;49996.47;;;-146.63;85.62
62462;BME280;48511;38.664;-9.202;2022-11-20T07:01:30;49984.63;;;-146.63;85.59
62462;BME280;48511;38.664;-9.202;2022-11-20T07:03:31;50000.44;;;-146.63;85.66
62462;BME280;48511;38.664;-9.202;2022-11-20T07:05:32;49953.06;;;-146.63;85.75
62462;BME280;48511;38.664;-9.202;2022-11-20T07:07:33;50000.44;;;-146.63;85.80
62462;BME280;48511;38.664;-9.202;2022-11-20T07:09:33;50010.28;;;-146.63;85.83
62462;BME280;48511;38.664;-9.202;2022-11-20T07:11:34;49970.81;;;-146.63;85.68
62462;BME280;48511;38.664;-9.202;2022-11-20T07:13:35;49998.44;;;-146.63;85.63
62462;BME280;48511;38.664;-9.202;2022-11-20T07:15:35;49964.91;;;-146.63;85.56
62462;BME280;48511;38.664;-9.202;2022-11-20T07:17:36;49968.84;;;-146.63;85.46
62462;BME280;48511;38.664;-9.202;2022-11-20T07:19:37;49964.91;;;-146.63;85.65
62462;BME280;48511;38.664;-9.202;2022-11-20T07:21:37;49988.59;;;-146.63;85.52
62462;BME280;48511;38.664;-9.202;2022-11-20T07:23:38;49976.75;;;-146.63;85.73
62462;BME280;48511;38.664;-9.202;2022-11-20T07:25:39;49994.50;;;-146.63;85.82
62462;BME280;48511;38.664;-9.202;2022-11-20T07:27:39;49980.69;;;-146.63;85.71
62462;BME280;48511;38.664;-9.202;2022-11-20T07:29:40;49984.63;;;-146.63;85.72
62462;BME280;48511;38.664;-9.202;2022-11-20T07:31:41;50016.22;;;-146.63;85.69
62462;BME280;48511;38.664;-9.202;2022-11-20T07:33:41;50000.44;;;-146.63;85.76
62462;BME280;48511;38.664;-9.202;2022-11-20T07:35:42;49972.78;;;-146.63;85.75
62462;BME280;48511;38.664;-9.202;2022-11-20T07:37:43;50002.41;;;-146.63;85.81
62462;BME280;48511;38.664;-9.202;2022-11-20T07:39:45;49988.59;;;-146.63;85.65
62462;BME280;48511;38.664;-9.202;2022-11-20T07:41:46;49988.59;;;-146.63;86.06
62462;BME280;48511;38.664;-9.202;2022-11-20T07:43:47;49976.75;;;-146.63;85.96
62462;BME280;48511;38.664;-9.202;2022-11-20T07:45:47;49958.97;;;-146.63;85.95
62462;BME280;48511;38.664;-9.202;2022-11-20T07:47:48;49988.59;;;-146.63;85.69
62462;BME280;48511;38.664;-9.202;2022-11-20T07:49:49;49978.72;;;-146.63;86.16
62462;BME280;48511;38.664;-9.202;2022-11-20T07:51:50;50014.25;;;-146.63;86.21
62462;BME280;48511;38.664;-9.202;2022-11-20T07:53:52;50004.38;;;-146.63;86.34
62462;BME280;48511;38.664;-9.202;2022-11-20T07:55:53;49970.81;;;-146.63;86.13
62462;BME280;48511;38.664;-9.202;2022-11-20T07:57:54;50008.31;;;-146.63;85.95
62462;BME280;48511;38.664;-9.202;2022-11-20T07:59:56;49984.63;;;-146.63;85.98
62462;BME280;48511;38.664;-9.202;2022-11-20T08:01:57;49998.44;;;-146.63;85.68
62462;BME280;48511;38.664;-9.202;2022-11-20T08:03:57;50000.44;;;-146.63;85.63
62462;BME280;48511;38.664;-9.202;2022-11-20T08:05:59;50012.25;;;-146.63;85.72
62462;BME280;48511;38.664;-9.202;2022-11-20T08:08:01;49992.53;;;-146.63;85.80
62462;BME280;48511;38.664;-9.202;2022-11-20T08:10:02;49966.88;;;-146.63;85.71
62462;BME280;48511;38.664;-9.202;2022-11-20T08:12:02;49998.44;;;-146.63;86.03
62462;BME280;48511;38.664;-9.202;2022-11-20T08:14:21;49984.63;;;-146.63;85.86
62462;BME280;48511;38.664;-9.202;2022-11-20T08:16:22;50000.44;;;-146.63;85.82
62462;BME280;48511;38.664;-9.202;2022-11-20T08:18:23;50008.31;;;-146.63;85.59
62462;BME280;48511;38.664;-9.202;2022-11-20T08:20:23;49982.66;;;-146.63;85.51
62462;BME280;48511;38.664;-9.202;2022-11-20T08:22:24;49947.13;;;-146.63;85.46
62462;BME280;48511;38.664;-9.202;2022-11-20T08:24:25;49968.84;;;-146.63;85.45
62462;BME280;48511;38.664;-9.202;2022-11-20T08:26:26;49970.81;;;-146.63;85.41
62462;BME280;48511;38.664;-9.202;2022-11-20T08:28:27;50010.28;;;-146.63;85.47
62462;BME280;48511;38.664;-9.202;2022-11-20T08:30:29;49964.91;;;-146.63;85.34
62462;BME280;48511;38.664;-9.202;2022-11-20T08:32:30;50020.16;;;-146.63;85.27
62462;BME280;48511;38.664;-9.202;2022-11-20T08:34:31;50032.00;;;-146.63;85.17
62462;BME280;48511;38.664;-9.202;2022-11-20T08:36:33;49984.63;;;-146.63;85.09
62462;BME280;48511;38.664;-9.202;2022-11-20T08:38:35;49972.78;;;-146.63;84.98
62462;BME280;48511;38.664;-9.202;2022-11-20T08:40:35;49968.84;;;-146.63;85.07
62462;BME280;48511;38.664;-9.202;2022-11-20T08:42:36;50004.38;;;-146.63;84.96
62462;BME280;48511;38.664;-9.202;2022-11-20T08:44:37;50008.31;;;-146.63;84.86
62462;BME280;48511;38.664;-9.202;2022-11-20T08:46:42;50006.34;;;-146.63;84.87
62462;BME280;48511;38.664;-9.202;2022-11-20T08:48:44;49968.84;;;-146.63;84.89
62462;BME280;48511;38.664;-9.202;2022-11-20T08:50:45;49966.88;;;-146.63;84.76
62462;BME280;48511;38.664;-9.202;2022-11-20T08:52:46;49990.56;;;-146.63;84.43
62462;BME280;48511;38.664;-9.202;2022-11-20T08:54:46;50000.44;;;-146.63;84.40
62462;BME280;48511;38.664;-9.202;2022-11-20T08:56:48;49976.75;;;-146.63;84.35
62462;BME280;48511;38.664;-9.202;2022-11-20T08:58:50;50000.44;;;-146.63;84.29
62462;BME280;48511;38.664;-9.202;2022-11-20T09:00:51;49988.59;;;-146.63;84.14
62462;BME280;48511;38.664;-9.202;2022-11-20T09:02:52;49976.75;;;-146.63;84.06
62462;BME280;48511;38.664;-9.202;2022-11-20T09:04:53;49964.91;;;-146.63;84.01
62462;BME280;48511;38.664;-9.202;2022-11-20T09:06:57;50010.28;;;-146.63;83.44
62462;BME280;48511;38.664;-9.202;2022-11-20T09:09:00;49970.81;;;-146.63;82.37
62462;BME280;48511;38.664;-9.202;2022-11-20T09:11:00;49966.88;;;-146.63;82.11
62462;BME280;48511;38.664;-9.202;2022-11-20T09:13:01;49962.91;;;-146.63;81.90
62462;BME280;48511;38.664;-9.202;2022-11-20T09:15:02;49988.59;;;-146.63;81.66
62462;BME280;48511;38.664;-9.202;2022-11-20T09:17:03;50008.31;;;-146.63;81.48
62462;BME280;48511;38.664;-9.202;2022-11-20T09:19:04;49984.63;;;-146.63;80.88
62462;BME280;48511;38.664;-9.202;2022-11-20T09:21:08;49998.44;;;-146.63;80.42
62462;BME280;48511;38.664;-9.202;2022-11-20T09:23:11;49917.53;;;-146.63;80.18
62462;BME280;48511;38.664;-9.202;2022-11-20T09:25:11;49970.81;;;-146.63;79.37
62462;BME280;48511;38.664;-9.202;2022-11-20T09:27:12;50016.22;;;-146.63;79.01
62462;BME280;48511;38.664;-9.202;2022-11-20T09:29:13;49955.03;;;-146.63;77.92
62462;BME280;48511;38.664;-9.202;2022-11-20T09:31:23;50000.44;;;-146.63;77.17
62462;BME280;48511;38.664;-9.202;2022-11-20T09:33:24;49984.63;;;-146.63;75.29
62462;BME280;48511;38.664;-9.202;2022-11-20T09:35:25;49980.69;;;-146.63;74.69
62462;BME280;48511;38.664;-9.202;2022-11-20T09:37:25;49988.59;;;-146.63;74.54
62462;BME280;48511;38.664;-9.202;2022-11-20T09:39:26;49992.53;;;-146.63;74.52
62462;BME280;48511;38.664;-9.202;2022-11-20T09:43:59;50008.31;;;-146.63;72.60
62462;BME280;48511;38.664;-9.202;2022-11-20T09:51:13;49972.78;;;-146.63;70.73
62462;BME280;48511;38.664;-9.202;2022-11-20T09:55:49;49972.78;;;-146.63;68.48
62462;BME280;48511;38.664;-9.202;2022-11-20T09:57:51;49976.75;;;-146.63;68.93
62462;BME280;48511;38.664;-9.202;2022-11-20T09:59:59;49953.06;;;-146.63;67.96
62462;BME280;48511;38.664;-9.202;2022-11-20T10:02:02;49945.16;;;-146.63;67.85
62462;BME280;48511;38.664;-9.202;2022-11-20T10:04:14;49988.59;;;-146.63;68.52
62462;BME280;48511;38.664;-9.202;2022-11-20T10:06:18;49994.50;;;-146.63;68.67
62462;BME280;48511;38.664;-9.202;2022-11-20T10:10:40;49968.84;;;-146.63;67.72
62462;BME280;48511;38.664;-9.202;2022-11-20T10:12:56;49972.78;;;-146.63;67.95
62462;BME280;48511;38.664;-9.202;2022-11-20T10:15:22;49976.75;;;-146.63;68.14
62462;BME280;48511;38.664;-9.202;2022-11-20T10:22:26;50004.38;;;-146.63;64.14
62462;BME280;48511;38.664;-9.202;2022-11-20T10:26:52;49982.66;;;-146.63;64.51
62462;BME280;48511;38.664;-9.202;2022-11-20T10:29:10;49937.25;;;-146.63;63.68
62462;BME280;48511;38.664;-9.202;2022-11-20T10:33:35;50024.09;;;-146.63;63.62
62462;BME280;48511;38.664;-9.202;2022-11-20T10:35:43;50000.44;;;-146.63;61.52
62462;BME280;48511;38.664;-9.202;2022-11-20T10:37:47;49960.94;;;-146.63;60.51
62462;BME280;48511;38.664;-9.202;2022-11-20T10:42:11;49972.78;;;-146.63;60.76
62462;BME280;48511;38.664;-9.202;2022-11-20T10:44:20;50002.41;;;-146.63;61.44
62462;BME280;48511;38.664;-9.202;2022-11-20T10:49:21;49953.06;;;-146.63;60.45
62462;BME280;48511;38.664;-9.202;2022-11-20T10:51:37;49974.75;;;-146.63;58.88
62462;BME280;48511;38.664;-9.202;2022-11-20T10:53:54;49943.19;;;-146.63;59.61